createdAt,value
2022-07-27T00:00:52.905Z,100506.44
2022-07-27T00:04:54.539Z,100504.69
2022-07-27T00:08:56.183Z,100498.59
2022-07-27T00:12:57.717Z,100499.44
2022-07-27T00:16:59.384Z,100502.91
2022-07-27T00:21:01.018Z,100506.41
2022-07-27T00:25:02.684Z,100508.16
2022-07-27T00:29:04.295Z,100502.09
2022-07-27T00:33:06.483Z,100503.00
2022-07-27T00:37:08.069Z,100509.06
2022-07-27T00:41:09.672Z,100504.75
2022-07-27T00:45:11.796Z,100515.16
2022-07-27T00:49:13.764Z,100513.41
2022-07-27T00:53:16.806Z,100509.88
2022-07-27T00:57:18.744Z,100515.06
2022-07-27T01:01:20.761Z,100517.66
2022-07-27T01:05:22.367Z,100526.31
2022-07-27T01:09:43.698Z,100515.06
2022-07-27T01:13:46.310Z,100514.22
2022-07-27T01:17:47.974Z,100514.16
2022-07-27T01:21:49.561Z,100515.00
2022-07-27T01:25:51.244Z,100519.38
2022-07-27T01:29:52.823Z,100514.16
2022-07-27T01:33:54.381Z,100511.53
2022-07-27T01:37:56.465Z,100498.50
2022-07-27T01:41:58.732Z,100494.16
2022-07-27T01:46:00.418Z,100496.78
2022-07-27T01:50:02.218Z,100503.75
2022-07-27T01:54:03.931Z,100498.53
2022-07-27T01:58:07.242Z,100499.41
2022-07-27T02:02:08.889Z,100503.75
2022-07-27T02:06:10.512Z,100498.56
2022-07-27T02:10:12.164Z,100503.78
2022-07-27T02:14:13.785Z,100499.47
2022-07-27T02:18:26.657Z,100498.59
2022-07-27T02:22:37.105Z,100494.22
2022-07-27T02:26:38.685Z,100495.94
2022-07-27T02:30:40.293Z,100500.31
2022-07-27T02:34:42.362Z,100495.97
2022-07-27T02:38:43.927Z,100490.78
2022-07-27T02:42:46.594Z,100496.00
2022-07-27T02:46:48.352Z,100489.03
2022-07-27T02:50:50.046Z,100490.75
2022-07-27T02:54:51.596Z,100489.06
2022-07-27T02:58:53.212Z,100489.03
2022-07-27T03:02:54.782Z,100496.00
2022-07-27T03:06:56.364Z,100493.38
2022-07-27T03:10:57.939Z,100495.09
2022-07-27T03:14:59.557Z,100489.91
2022-07-27T03:19:01.119Z,100489.06
2022-07-27T03:23:02.692Z,100491.75
2022-07-27T03:27:04.284Z,100494.34
2022-07-27T03:31:05.887Z,100492.59
2022-07-27T03:35:07.963Z,100490.91
2022-07-27T03:39:10.181Z,100497.84
2022-07-27T03:43:12.063Z,100498.72
2022-07-27T03:47:13.646Z,100503.09
2022-07-27T03:51:15.209Z,100511.75
2022-07-27T03:55:16.868Z,100508.28
2022-07-27T03:59:18.399Z,100507.41
2022-07-27T04:03:19.997Z,100499.59
2022-07-27T04:07:21.662Z,100503.91
2022-07-27T04:11:23.245Z,100494.41
2022-07-27T04:15:27.280Z,100510.88
2022-07-27T04:19:28.959Z,100523.03
2022-07-27T04:23:34.810Z,100525.59
2022-07-27T04:27:39.355Z,100522.13
2022-07-27T04:31:41.073Z,100516.94
2022-07-27T04:35:42.673Z,100522.09
2022-07-27T04:39:44.302Z,100523.88
2022-07-27T04:43:46.001Z,100516.03
2022-07-27T04:47:47.664Z,100523.00
2022-07-27T04:51:49.338Z,100522.13
2022-07-27T04:55:51.188Z,100523.00
2022-07-27T04:59:52.835Z,100528.22
2022-07-27T05:03:54.414Z,100533.38
2022-07-27T05:07:56.330Z,100542.09
2022-07-27T05:11:57.909Z,100542.94
2022-07-27T05:15:59.441Z,100547.28
2022-07-27T05:20:01.337Z,100546.38
2022-07-27T05:24:03.023Z,100556.78
2022-07-27T05:28:05.429Z,100556.81
2022-07-27T05:32:07.369Z,100556.78
2022-07-27T05:36:08.981Z,100555.94
2022-07-27T05:40:11.070Z,100560.25
2022-07-27T05:44:12.642Z,100548.16
2022-07-27T05:48:14.242Z,100570.66
2022-07-27T05:52:17.017Z,100570.66
2022-07-27T05:56:18.630Z,100570.72
2022-07-27T06:00:20.637Z,100568.97
2022-07-27T06:04:22.298Z,100564.63
2022-07-27T06:08:23.863Z,100568.09
2022-07-27T06:12:30.051Z,100562.88
2022-07-27T06:16:31.878Z,100579.31
2022-07-27T06:20:33.733Z,100582.75
2022-07-27T06:24:35.480Z,100581.91
2022-07-27T06:28:37.100Z,100574.06
2022-07-27T06:32:38.903Z,100580.13
2022-07-27T06:36:42.347Z,100583.56
2022-07-27T06:40:43.914Z,100581.75
2022-07-27T06:44:45.540Z,100586.13
2022-07-27T06:48:47.199Z,100589.53
2022-07-27T06:52:49.508Z,100603.53
2022-07-27T06:56:51.181Z,100601.84
2022-07-27T07:00:52.861Z,100605.31
2022-07-27T07:04:54.475Z,100607.06
2022-07-27T07:08:56.070Z,100601.88
2022-07-27T07:13:05.160Z,100612.25
2022-07-27T07:17:06.743Z,100615.63
2022-07-27T07:21:08.920Z,100611.19
2022-07-27T07:25:10.592Z,100619.78
2022-07-27T07:29:12.523Z,100623.19
2022-07-27T07:33:14.598Z,100622.22
2022-07-27T07:37:17.289Z,100622.00
2022-07-27T07:41:18.883Z,100620.16
2022-07-27T07:45:22.939Z,100625.38
2022-07-27T07:49:39.049Z,100618.25
2022-07-27T07:53:41.933Z,100615.53
2022-07-27T07:57:43.622Z,100611.03
2022-07-27T08:01:45.243Z,100609.97
2022-07-27T08:05:47.400Z,100613.19
2022-07-27T08:09:49.126Z,100606.84
2022-07-27T08:13:50.776Z,100608.47
2022-07-27T08:17:52.356Z,100610.03
2022-07-27T08:21:54.074Z,100602.72
2022-07-27T08:25:55.700Z,100606.16
2022-07-27T08:29:57.286Z,100607.59
2022-07-27T08:33:58.880Z,100601.81
2022-07-27T08:38:01.947Z,100593.88
2022-07-27T08:42:09.434Z,100593.91
2022-07-27T08:46:11.530Z,100596.47
2022-07-27T08:50:24.814Z,100586.66
2022-07-27T08:54:26.566Z,100589.59
2022-07-27T08:58:28.281Z,100594.97
2022-07-27T09:02:29.956Z,100594.31
2022-07-27T09:06:53.301Z,100596.09
2022-07-27T09:10:57.962Z,100593.47
2022-07-27T09:15:07.723Z,100602.25
2022-07-27T09:19:10.582Z,100600.94
2022-07-27T09:23:12.816Z,100591.13
2022-07-27T09:27:14.394Z,100600.69
2022-07-27T09:31:16.491Z,100590.97
2022-07-27T09:35:19.596Z,100596.09
2022-07-27T09:39:23.275Z,100602.56
2022-07-27T09:44:28.618Z,100599.50
2022-07-27T09:47:48.501Z,100606.13
2022-07-27T09:52:06.106Z,100597.72
2022-07-27T09:56:16.289Z,100609.34
2022-07-27T10:00:18.486Z,100607.69
2022-07-27T10:04:20.173Z,100613.69
2022-07-27T10:08:22.621Z,100611.88
2022-07-27T10:12:24.497Z,100610.03
2022-07-27T10:16:29.601Z,100601.16
2022-07-27T10:20:33.322Z,100610.28
2022-07-27T10:24:37.048Z,100602.31
2022-07-27T10:28:57.169Z,100617.09
2022-07-27T10:32:58.758Z,100613.53
2022-07-27T10:37:11.795Z,100612.44
2022-07-27T10:41:24.464Z,100612.19
2022-07-27T10:46:00.070Z,100607.53
2022-07-27T10:50:17.528Z,100617.19
2022-07-27T10:54:29.424Z,100608.25
2022-07-27T10:58:31.867Z,100594.97
2022-07-27T11:02:42.170Z,100599.94
2022-07-27T11:07:22.549Z,100607.78
2022-07-27T11:11:08.506Z,100585.69
2022-07-27T11:15:10.245Z,100586.53
2022-07-27T11:19:12.102Z,100594.50
2022-07-27T11:27:52.126Z,100592.13
2022-07-27T11:31:57.323Z,100586.72
2022-07-27T11:36:06.489Z,100588.41
2022-07-27T11:40:53.383Z,100591.09
2022-07-27T11:44:30.580Z,100570.34
2022-07-27T11:48:49.899Z,100577.31
2022-07-27T11:53:01.599Z,100575.91
2022-07-27T11:57:06.310Z,100577.53
2022-07-27T12:01:08.054Z,100574.81
2022-07-27T12:05:10.730Z,100565.00
2022-07-27T12:09:15.621Z,100563.97
2022-07-27T12:13:20.734Z,100560.13
2022-07-27T12:17:35.168Z,100555.09
2022-07-27T12:21:36.759Z,100547.56
2022-07-27T12:25:39.670Z,100550.22
2022-07-27T12:30:05.308Z,100549.47
2022-07-27T12:34:07.171Z,100540.66
2022-07-27T12:38:10.008Z,100539.50
2022-07-27T12:42:12.653Z,100537.16
2022-07-27T12:46:15.632Z,100540.88
2022-07-27T12:50:27.472Z,100539.03
2022-07-27T12:54:29.095Z,100540.72
2022-07-27T12:58:30.952Z,100532.50
2022-07-27T13:02:32.550Z,100521.31
2022-07-27T13:06:34.180Z,100510.97
2022-07-27T13:10:37.193Z,100518.88
2022-07-27T13:14:39.062Z,100510.59
2022-07-27T13:18:44.956Z,100502.00
2022-07-27T13:22:47.193Z,100488.59
2022-07-27T13:26:49.483Z,100495.41
2022-07-27T13:30:51.108Z,100494.06
2022-07-27T13:34:53.468Z,100491.78
2022-07-27T13:38:56.665Z,100493.00
2022-07-27T13:42:58.239Z,100489.06
2022-07-27T13:46:59.992Z,100491.75
2022-07-27T13:51:01.694Z,100490.94
2022-07-27T13:55:03.798Z,100482.00
2022-07-27T13:59:10.309Z,100486.59
2022-07-27T14:03:12.179Z,100478.16
2022-07-27T14:07:13.888Z,100484.66
2022-07-27T14:11:16.527Z,100474.19
2022-07-27T14:15:18.099Z,100471.44
2022-07-27T14:19:20.292Z,100473.69
2022-07-27T14:23:24.984Z,100476.84
2022-07-27T14:27:26.639Z,100467.44
2022-07-27T14:31:38.119Z,100469.44
2022-07-27T14:35:40.955Z,100478.53
2022-07-27T14:39:42.811Z,100477.09
2022-07-27T14:43:44.450Z,100474.53
2022-07-27T14:47:47.115Z,100475.91
2022-07-27T14:51:48.774Z,100472.19
2022-07-27T14:55:50.377Z,100469.91
2022-07-27T14:59:51.986Z,100464.38
2022-07-27T15:03:55.377Z,100463.91
2022-07-27T15:07:57.049Z,100457.63
2022-07-27T15:11:59.627Z,100461.91
2022-07-27T15:16:02.972Z,100453.59
2022-07-27T15:20:08.375Z,100451.00
2022-07-27T15:24:10.078Z,100438.13
2022-07-27T15:28:12.215Z,100431.19
2022-07-27T15:32:13.863Z,100432.25
2022-07-27T15:36:32.336Z,100432.38
2022-07-27T15:40:38.216Z,100419.19
2022-07-27T15:44:41.356Z,100409.06
2022-07-27T15:48:43.011Z,100415.25
2022-07-27T15:52:44.651Z,100417.06
2022-07-27T15:56:46.570Z,100420.63
2022-07-27T16:00:51.100Z,100422.41
2022-07-27T16:04:53.804Z,100420.06
2022-07-27T16:08:55.389Z,100414.34
2022-07-27T16:12:57.266Z,100408.78
2022-07-27T16:17:00.171Z,100414.03
2022-07-27T16:21:02.038Z,100417.06
2022-07-27T16:25:04.176Z,100413.78
2022-07-27T16:29:05.810Z,100401.13
2022-07-27T16:33:07.494Z,100400.38
2022-07-27T16:37:09.068Z,100400.91
2022-07-27T16:41:11.075Z,100394.91
2022-07-27T16:45:12.734Z,100387.53
2022-07-27T16:49:15.149Z,100391.00
2022-07-27T16:53:17.183Z,100382.97
2022-07-27T16:57:19.168Z,100381.31
2022-07-27T17:01:22.002Z,100388.91
2022-07-27T17:05:29.321Z,100385.34
2022-07-27T17:09:30.906Z,100387.38
2022-07-27T17:13:34.099Z,100393.00
2022-07-27T17:17:36.389Z,100389.97
2022-07-27T17:21:38.009Z,100394.63
2022-07-27T17:25:39.641Z,100384.19
2022-07-27T17:29:41.194Z,100396.75
2022-07-27T17:33:42.851Z,100396.00
2022-07-27T17:38:05.188Z,100405.75
2022-07-27T17:42:07.605Z,100393.25
2022-07-27T17:46:11.057Z,100390.50
2022-07-27T17:50:12.880Z,100397.97
2022-07-27T17:54:14.470Z,100395.88
2022-07-27T17:58:16.217Z,100396.19
2022-07-27T18:02:18.596Z,100400.78
2022-07-27T18:06:20.217Z,100403.13
2022-07-27T18:10:21.886Z,100403.81
2022-07-27T18:14:23.523Z,100412.06
2022-07-27T18:18:26.698Z,100417.63
2022-07-27T18:22:28.318Z,100414.25
2022-07-27T18:26:30.002Z,100424.38
2022-07-27T18:30:32.385Z,100433.34
2022-07-27T18:34:33.937Z,100443.03
2022-07-27T18:38:35.595Z,100452.97
2022-07-27T18:42:38.267Z,100454.09
2022-07-27T18:46:39.923Z,100450.84
2022-07-27T18:50:41.830Z,100457.25
2022-07-27T18:54:43.614Z,100458.28
2022-07-27T18:58:45.181Z,100473.28
2022-07-27T19:02:47.229Z,100467.38
2022-07-27T19:06:50.733Z,100471.13
2022-07-27T19:10:53.023Z,100480.94
2022-07-27T19:14:54.673Z,100477.69
2022-07-27T19:18:56.752Z,100484.97
2022-07-27T19:22:59.821Z,100492.09
2022-07-27T19:27:01.652Z,100494.91
2022-07-27T19:31:03.396Z,100502.94
2022-07-27T19:35:05.432Z,100512.69
2022-07-27T19:39:08.185Z,100512.66
2022-07-27T19:43:10.119Z,100511.91
2022-07-27T19:47:11.797Z,100512.03
2022-07-27T19:51:13.472Z,100517.47
2022-07-27T19:55:15.161Z,100519.25
2022-07-27T19:59:16.827Z,100521.94
2022-07-27T20:03:19.332Z,100523.72
2022-07-27T20:07:20.941Z,100532.50
2022-07-27T20:11:23.447Z,100536.94
2022-07-27T20:15:25.147Z,100535.19
2022-07-27T20:19:26.873Z,100534.34
2022-07-27T20:23:29.108Z,100530.97
2022-07-27T20:27:30.677Z,100527.56
2022-07-27T20:31:33.223Z,100532.78
2022-07-27T20:35:37.903Z,100528.44
2022-07-27T20:39:39.652Z,100531.06
2022-07-27T20:43:41.320Z,100528.47
2022-07-27T20:47:44.135Z,100532.88
2022-07-27T20:51:45.862Z,100534.72
2022-07-27T20:55:48.008Z,100529.69
2022-07-27T20:59:49.729Z,100524.53
2022-07-27T21:03:51.298Z,100537.59
2022-07-27T21:07:56.099Z,100531.56
2022-07-27T21:11:57.676Z,100528.16
2022-07-27T21:15:59.549Z,100532.50
2022-07-27T21:20:01.163Z,100525.59
2022-07-27T21:24:15.373Z,100532.56
2022-07-27T21:28:21.008Z,100530.00
2022-07-27T21:32:26.588Z,100529.19
2022-07-27T21:36:28.173Z,100531.81
2022-07-27T21:40:31.809Z,100540.59
2022-07-27T21:44:33.742Z,100532.84
2022-07-27T21:48:35.428Z,100534.63
2022-07-27T21:52:37.094Z,100540.78
2022-07-27T21:56:41.199Z,100529.53
2022-07-27T22:00:43.876Z,100537.34
2022-07-27T22:04:45.486Z,100541.69
2022-07-27T22:08:47.118Z,100549.50
2022-07-27T22:12:48.663Z,100545.16
2022-07-27T22:16:50.493Z,100546.03
2022-07-27T22:20:52.284Z,100537.31
2022-07-27T22:24:54.182Z,100540.78
2022-07-27T22:28:55.736Z,100552.16
2022-07-27T22:32:57.306Z,100558.25
2022-07-27T22:36:58.885Z,100564.34
2022-07-27T22:41:00.492Z,100555.59
2022-07-27T22:45:02.125Z,100565.19
2022-07-27T22:49:04.386Z,100556.53
2022-07-27T22:53:06.267Z,100559.16
2022-07-27T22:57:07.914Z,100555.72
2022-07-27T23:01:22.311Z,100560.94
2022-07-27T23:05:31.228Z,100555.75
2022-07-27T23:09:32.850Z,100561.84
2022-07-27T23:13:34.598Z,100553.16
2022-07-27T23:17:36.146Z,100562.75
2022-07-27T23:21:39.704Z,100558.44
2022-07-27T23:25:48.680Z,100566.22
2022-07-27T23:29:50.312Z,100561.91
2022-07-27T23:33:51.858Z,100561.06
2022-07-27T23:37:53.447Z,100566.28
2022-07-27T23:41:55.029Z,100559.31
2022-07-27T23:45:56.638Z,100545.47
2022-07-27T23:49:58.234Z,100544.66
2022-07-27T23:53:59.842Z,100549.84
2022-07-27T23:58:01.521Z,100535.97
